sensor_id;sensor_type;location;lat;lon;timestamp;pressure;altitude;pressure_sealevel;temperature;humidity
77893;BME280;67087;50.094;14.338;2023-09-12T00:01:59;97710.37;;;28.14;33.66
77893;BME280;67087;50.094;14.338;2023-09-12T00:04:24;97708.25;;;28.47;33.68
77893;BME280;67087;50.094;14.338;2023-09-12T00:06:49;97709.04;;;28.45;33.84
77893;BME280;67087;50.094;14.338;2023-09-12T00:09:15;97708.29;;;27.95;33.79
77893;BME280;67087;50.094;14.338;2023-09-12T00:11:40;97707.18;;;28.11;34.44
77893;BME280;67087;50.094;14.338;2023-09-12T00:14:05;97704.81;;;28.17;34.35
77893;BME280;67087;50.094;14.338;2023-09-12T00:16:31;97703.98;;;27.97;34.05
77893;BME280;67087;50.094;14.338;2023-09-12T00:18:55;97707.07;;;28.13;34.13
77893;BME280;67087;50.094;14.338;2023-09-12T00:21:21;97706.91;;;27.88;33.84
77893;BME280;67087;50.094;14.338;2023-09-12T00:23:46;97705.76;;;28.11;34.08
77893;BME280;67087;50.094;14.338;2023-09-12T00:26:12;97703.02;;;28.38;33.63
77893;BME280;67087;50.094;14.338;2023-09-12T00:28:37;97704.51;;;28.14;33.80
77893;BME280;67087;50.094;14.338;2023-09-12T00:31:02;97704.29;;;27.88;33.75
77893;BME280;67087;50.094;14.338;2023-09-12T00:33:28;97700.14;;;28.18;33.75
77893;BME280;67087;50.094;14.338;2023-09-12T00:35:53;97700.19;;;28.07;34.21
77893;BME280;67087;50.094;14.338;2023-09-12T00:38:19;97700.86;;;28.05;34.08
77893;BME280;67087;50.094;14.338;2023-09-12T00:40:44;97701.83;;;28.06;34.34
77893;BME280;67087;50.094;14.338;2023-09-12T00:43:10;97700.72;;;28.11;33.99
77893;BME280;67087;50.094;14.338;2023-09-12T00:45:35;97697.67;;;27.80;34.22
77893;BME280;67087;50.094;14.338;2023-09-12T00:48:01;97701.07;;;28.31;34.25
77893;BME280;67087;50.094;14.338;2023-09-12T00:50:26;97702.41;;;28.05;34.04
77893;BME280;67087;50.094;14.338;2023-09-12T00:52:52;97705.01;;;28.14;33.96
77893;BME280;67087;50.094;14.338;2023-09-12T00:55:17;97708.59;;;28.06;34.32
77893;BME280;67087;50.094;14.338;2023-09-12T00:57:43;97709.85;;;28.08;34.04
77893;BME280;67087;50.094;14.338;2023-09-12T01:00:11;97709.53;;;28.16;34.17
77893;BME280;67087;50.094;14.338;2023-09-12T01:02:34;97711.30;;;27.87;33.99
77893;BME280;67087;50.094;14.338;2023-09-12T01:04:59;97710.97;;;27.99;34.17
77893;BME280;67087;50.094;14.338;2023-09-12T01:07:25;97712.59;;;27.89;33.92
77893;BME280;67087;50.094;14.338;2023-09-12T01:09:50;97714.32;;;28.00;33.69
77893;BME280;67087;50.094;14.338;2023-09-12T01:12:15;97715.68;;;28.17;34.28
77893;BME280;67087;50.094;14.338;2023-09-12T01:14:41;97711.96;;;27.97;33.86
77893;BME280;67087;50.094;14.338;2023-09-12T01:17:07;97712.98;;;28.24;33.79
77893;BME280;67087;50.094;14.338;2023-09-12T01:19:33;97713.01;;;28.03;33.99
77893;BME280;67087;50.094;14.338;2023-09-12T01:24:35;97712.44;;;28.44;33.94
77893;BME280;67087;50.094;14.338;2023-09-12T01:26:56;97707.21;;;28.20;33.68
77893;BME280;67087;50.094;14.338;2023-09-12T01:29:15;97707.61;;;28.04;33.78
77893;BME280;67087;50.094;14.338;2023-09-12T01:31:39;97707.20;;;28.20;33.49
77893;BME280;67087;50.094;14.338;2023-09-12T01:34:08;97708.44;;;28.34;33.53
77893;BME280;67087;50.094;14.338;2023-09-12T01:36:29;97708.58;;;28.02;33.60
77893;BME280;67087;50.094;14.338;2023-09-12T01:38:55;97708.64;;;27.99;33.93
77893;BME280;67087;50.094;14.338;2023-09-12T01:41:23;97707.49;;;28.43;33.51
77893;BME280;67087;50.094;14.338;2023-09-12T01:43:47;97709.12;;;28.00;33.68
77893;BME280;67087;50.094;14.338;2023-09-12T01:46:12;97712.31;;;27.96;33.65
77893;BME280;67087;50.094;14.338;2023-09-12T01:48:37;97711.43;;;27.90;33.83
77893;BME280;67087;50.094;14.338;2023-09-12T01:51:03;97711.54;;;28.40;33.99
77893;BME280;67087;50.094;14.338;2023-09-12T01:53:28;97712.36;;;28.20;33.92
77893;BME280;67087;50.094;14.338;2023-09-12T01:55:54;97712.69;;;28.27;33.70
77893;BME280;67087;50.094;14.338;2023-09-12T01:58:19;97716.79;;;28.13;33.84
77893;BME280;67087;50.094;14.338;2023-09-12T02:00:44;97716.59;;;27.90;33.83
77893;BME280;67087;50.094;14.338;2023-09-12T02:03:10;97727.50;;;27.85;33.66
77893;BME280;67087;50.094;14.338;2023-09-12T02:05:35;97728.20;;;27.84;33.75
77893;BME280;67087;50.094;14.338;2023-09-12T02:08:01;97730.41;;;28.02;33.73
77893;BME280;67087;50.094;14.338;2023-09-12T02:10:26;97731.37;;;27.74;33.84
77893;BME280;67087;50.094;14.338;2023-09-12T02:12:52;97730.50;;;27.82;33.69
77893;BME280;67087;50.094;14.338;2023-09-12T02:15:17;97733.68;;;28.08;33.63
77893;BME280;67087;50.094;14.338;2023-09-12T02:17:43;97726.74;;;28.09;33.50
77893;BME280;67087;50.094;14.338;2023-09-12T02:20:09;97730.64;;;28.30;33.64
77893;BME280;67087;50.094;14.338;2023-09-12T02:22:33;97733.32;;;28.08;33.55
77893;BME280;67087;50.094;14.338;2023-09-12T02:24:59;97734.02;;;27.80;33.87
77893;BME280;67087;50.094;14.338;2023-09-12T02:27:25;97725.58;;;28.48;33.50
77893;BME280;67087;50.094;14.338;2023-09-12T02:29:50;97729.20;;;27.89;34.46
77893;BME280;67087;50.094;14.338;2023-09-12T02:32:16;97724.44;;;28.35;33.61
77893;BME280;67087;50.094;14.338;2023-09-12T02:34:41;97726.71;;;28.03;33.67
77893;BME280;67087;50.094;14.338;2023-09-12T02:37:07;97728.01;;;28.01;33.68
77893;BME280;67087;50.094;14.338;2023-09-12T02:39:33;97731.38;;;27.77;33.50
77893;BME280;67087;50.094;14.338;2023-09-12T02:41:58;97734.48;;;28.22;33.69
77893;BME280;67087;50.094;14.338;2023-09-12T02:44:23;97731.59;;;27.79;33.53
77893;BME280;67087;50.094;14.338;2023-09-12T02:46:49;97731.32;;;27.86;33.37
77893;BME280;67087;50.094;14.338;2023-09-12T02:49:14;97733.34;;;27.96;33.52
77893;BME280;67087;50.094;14.338;2023-09-12T02:51:40;97733.94;;;27.71;33.83
77893;BME280;67087;50.094;14.338;2023-09-12T02:54:05;97735.58;;;28.28;33.74
77893;BME280;67087;50.094;14.338;2023-09-12T02:56:30;97731.98;;;28.23;33.63
77893;BME280;67087;50.094;14.338;2023-09-12T02:58:56;97731.06;;;28.19;33.58
77893;BME280;67087;50.094;14.338;2023-09-12T03:01:21;97730.07;;;28.32;33.19
77893;BME280;67087;50.094;14.338;2023-09-12T03:03:46;97727.03;;;28.27;33.22
77893;BME280;67087;50.094;14.338;2023-09-12T03:06:11;97728.24;;;28.16;33.55
77893;BME280;67087;50.094;14.338;2023-09-12T03:08:36;97728.14;;;27.73;33.30
77893;BME280;67087;50.094;14.338;2023-09-12T03:11:01;97728.21;;;28.09;33.47
77893;BME280;67087;50.094;14.338;2023-09-12T03:13:28;97729.94;;;28.28;33.13
77893;BME280;67087;50.094;14.338;2023-09-12T03:15:52;97730.59;;;27.81;33.47
77893;BME280;67087;50.094;14.338;2023-09-12T03:18:18;97727.88;;;28.03;33.22
77893;BME280;67087;50.094;14.338;2023-09-12T03:20:43;97728.33;;;28.25;33.32
77893;BME280;67087;50.094;14.338;2023-09-12T03:23:09;97724.35;;;28.18;33.35
77893;BME280;67087;50.094;14.338;2023-09-12T03:25:35;97723.01;;;27.46;33.78
77893;BME280;67087;50.094;14.338;2023-09-12T03:28:00;97722.60;;;28.19;33.65
77893;BME280;67087;50.094;14.338;2023-09-12T03:30:25;97724.11;;;27.95;33.40
77893;BME280;67087;50.094;14.338;2023-09-12T03:32:51;97719.16;;;28.35;33.23
77893;BME280;67087;50.094;14.338;2023-09-12T03:35:16;97719.63;;;28.01;33.65
77893;BME280;67087;50.094;14.338;2023-09-12T03:37:41;97721.89;;;28.23;33.66
77893;BME280;67087;50.094;14.338;2023-09-12T03:40:08;97721.30;;;27.75;33.71
77893;BME280;67087;50.094;14.338;2023-09-12T03:42:32;97722.54;;;28.00;33.44
77893;BME280;67087;50.094;14.338;2023-09-12T03:44:56;97717.99;;;28.33;33.25
77893;BME280;67087;50.094;14.338;2023-09-12T03:47:22;97718.99;;;28.08;33.23
77893;BME280;67087;50.094;14.338;2023-09-12T03:49:48;97721.64;;;28.07;33.11
77893;BME280;67087;50.094;14.338;2023-09-12T03:52:14;97722.32;;;27.97;33.12
77893;BME280;67087;50.094;14.338;2023-09-12T03:54:38;97717.92;;;27.80;33.11
77893;BME280;67087;50.094;14.338;2023-09-12T03:57:04;97718.57;;;27.93;33.20
77893;BME280;67087;50.094;14.338;2023-09-12T03:59:29;97719.33;;;27.86;32.96
77893;BME280;67087;50.094;14.338;2023-09-12T04:01:54;97721.49;;;28.14;32.99
77893;BME280;67087;50.094;14.338;2023-09-12T04:04:20;97722.98;;;28.13;33.08
77893;BME280;67087;50.094;14.338;2023-09-12T04:06:45;97722.77;;;27.90;33.66
77893;BME280;67087;50.094;14.338;2023-09-12T04:09:10;97725.63;;;27.84;33.41
77893;BME280;67087;50.094;14.338;2023-09-12T04:11:36;97724.77;;;28.13;33.54
77893;BME280;67087;50.094;14.338;2023-09-12T04:14:01;97727.81;;;27.91;33.23
77893;BME280;67087;50.094;14.338;2023-09-12T04:16:27;97726.39;;;28.04;33.64
77893;BME280;67087;50.094;14.338;2023-09-12T04:18:52;97725.55;;;27.95;33.16
77893;BME280;67087;50.094;14.338;2023-09-12T04:21:18;97728.00;;;28.12;33.24
77893;BME280;67087;50.094;14.338;2023-09-12T04:23:43;97729.98;;;28.04;33.22
77893;BME280;67087;50.094;14.338;2023-09-12T04:26:09;97725.27;;;28.13;33.71
77893;BME280;67087;50.094;14.338;2023-09-12T04:28:34;97718.32;;;28.06;33.39
77893;BME280;67087;50.094;14.338;2023-09-12T04:31:01;97719.13;;;28.16;33.74
77893;BME280;67087;50.094;14.338;2023-09-12T04:33:25;97720.29;;;28.25;34.14
77893;BME280;67087;50.094;14.338;2023-09-12T04:35:51;97723.61;;;28.11;34.02
77893;BME280;67087;50.094;14.338;2023-09-12T04:38:16;97719.07;;;27.94;34.06
77893;BME280;67087;50.094;14.338;2023-09-12T04:40:41;97719.34;;;28.13;33.68
77893;BME280;67087;50.094;14.338;2023-09-12T04:43:06;97718.58;;;28.84;33.59
77893;BME280;67087;50.094;14.338;2023-09-12T04:45:33;97719.89;;;28.72;32.92
77893;BME280;67087;50.094;14.338;2023-09-12T04:47:57;97718.22;;;28.81;32.32
77893;BME280;67087;50.094;14.338;2023-09-12T04:50:23;97718.34;;;28.93;32.61
77893;BME280;67087;50.094;14.338;2023-09-12T04:52:48;97716.33;;;28.37;33.47
77893;BME280;67087;50.094;14.338;2023-09-12T04:55:14;97717.21;;;28.60;33.46
77893;BME280;67087;50.094;14.338;2023-09-12T04:57:39;97722.01;;;28.23;33.80
77893;BME280;67087;50.094;14.338;2023-09-12T05:00:05;97724.40;;;28.85;32.53
77893;BME280;67087;50.094;14.338;2023-09-12T05:02:29;97723.53;;;28.91;32.32
77893;BME280;67087;50.094;14.338;2023-09-12T05:04:55;97729.38;;;29.04;32.05
77893;BME280;67087;50.094;14.338;2023-09-12T05:07:20;97730.31;;;28.37;33.15
77893;BME280;67087;50.094;14.338;2023-09-12T05:09:45;97733.05;;;28.56;32.71
77893;BME280;67087;50.094;14.338;2023-09-12T05:12:11;97733.59;;;28.98;32.79
77893;BME280;67087;50.094;14.338;2023-09-12T05:14:36;97733.14;;;28.07;31.40
77893;BME280;67087;50.094;14.338;2023-09-12T05:17:02;97730.17;;;28.96;30.22
77893;BME280;67087;50.094;14.338;2023-09-12T05:19:29;97733.59;;;28.62;30.25
77893;BME280;67087;50.094;14.338;2023-09-12T05:21:53;97741.21;;;28.29;31.55
77893;BME280;67087;50.094;14.338;2023-09-12T05:24:18;97741.62;;;27.98;32.34
77893;BME280;67087;50.094;14.338;2023-09-12T05:26:44;97740.48;;;28.02;32.22
77893;BME280;67087;50.094;14.338;2023-09-12T05:29:09;97740.32;;;28.03;31.86
77893;BME280;67087;50.094;14.338;2023-09-12T05:31:35;97743.33;;;27.87;32.26
77893;BME280;67087;50.094;14.338;2023-09-12T05:34:00;97739.79;;;28.40;31.88
77893;BME280;67087;50.094;14.338;2023-09-12T05:36:25;97746.80;;;28.17;32.11
77893;BME280;67087;50.094;14.338;2023-09-12T05:38:51;97746.43;;;27.90;32.58
77893;BME280;67087;50.094;14.338;2023-09-12T05:41:16;97746.29;;;27.99;31.85
77893;BME280;67087;50.094;14.338;2023-09-12T05:43:42;97746.47;;;28.29;32.05
77893;BME280;67087;50.094;14.338;2023-09-12T05:46:07;97750.15;;;28.22;32.46
77893;BME280;67087;50.094;14.338;2023-09-12T05:48:33;97748.92;;;28.51;32.17
77893;BME280;67087;50.094;14.338;2023-09-12T05:50:59;97750.22;;;28.01;32.09
77893;BME280;67087;50.094;14.338;2023-09-12T05:53:24;97742.93;;;28.20;32.09
77893;BME280;67087;50.094;14.338;2023-09-12T05:55:49;97748.21;;;28.37;32.22
77893;BME280;67087;50.094;14.338;2023-09-12T05:58:14;97752.02;;;28.36;31.60
77893;BME280;67087;50.094;14.338;2023-09-12T06:00:40;97753.44;;;28.11;31.97
77893;BME280;67087;50.094;14.338;2023-09-12T06:03:05;97757.59;;;28.23;31.89
77893;BME280;67087;50.094;14.338;2023-09-12T06:05:31;97758.61;;;28.20;32.54
77893;BME280;67087;50.094;14.338;2023-09-12T06:07:56;97761.26;;;28.49;32.11
77893;BME280;67087;50.094;14.338;2023-09-12T06:10:21;97756.59;;;28.53;32.43
77893;BME280;67087;50.094;14.338;2023-09-12T06:12:46;97763.94;;;28.14;32.39
77893;BME280;67087;50.094;14.338;2023-09-12T06:15:11;97762.44;;;28.23;32.41
77893;BME280;67087;50.094;14.338;2023-09-12T06:17:37;97756.31;;;28.41;32.79
77893;BME280;67087;50.094;14.338;2023-09-12T06:20:03;97759.44;;;28.25;32.53
77893;BME280;67087;50.094;14.338;2023-09-12T06:22:28;97754.82;;;28.35;32.26
77893;BME280;67087;50.094;14.338;2023-09-12T06:24:53;97756.11;;;28.61;33.77
77893;BME280;67087;50.094;14.338;2023-09-12T06:27:19;97762.72;;;28.48;33.99
77893;BME280;67087;50.094;14.338;2023-09-12T06:29:44;97760.30;;;28.41;34.12
77893;BME280;67087;50.094;14.338;2023-09-12T06:32:10;97754.45;;;28.57;34.58
77893;BME280;67087;50.094;14.338;2023-09-12T06:34:35;97754.72;;;28.39;34.09
77893;BME280;67087;50.094;14.338;2023-09-12T06:37:01;97758.59;;;28.83;33.54
77893;BME280;67087;50.094;14.338;2023-09-12T06:39:26;97758.73;;;28.45;33.73
77893;BME280;67087;50.094;14.338;2023-09-12T06:41:52;97760.16;;;28.28;33.48
77893;BME280;67087;50.094;14.338;2023-09-12T06:44:17;97761.70;;;28.84;34.80
77893;BME280;67087;50.094;14.338;2023-09-12T06:46:42;97760.42;;;28.51;33.81
77893;BME280;67087;50.094;14.338;2023-09-12T06:49:08;97762.55;;;29.00;33.94
77893;BME280;67087;50.094;14.338;2023-09-12T06:51:33;97761.80;;;28.67;35.02
77893;BME280;67087;50.094;14.338;2023-09-12T06:53:59;97767.07;;;28.88;35.84
77893;BME280;67087;50.094;14.338;2023-09-12T06:56:24;97767.61;;;28.98;36.19
77893;BME280;67087;50.094;14.338;2023-09-12T06:58:49;97767.85;;;29.02;36.64
77893;BME280;67087;50.094;14.338;2023-09-12T07:01:15;97767.17;;;29.20;36.88
77893;BME280;67087;50.094;14.338;2023-09-12T07:03:40;97769.91;;;28.71;37.48
77893;BME280;67087;50.094;14.338;2023-09-12T07:06:06;97771.16;;;28.80;36.11
77893;BME280;67087;50.094;14.338;2023-09-12T07:08:31;97770.87;;;28.92;36.03
77893;BME280;67087;50.094;14.338;2023-09-12T07:10:56;97768.29;;;28.53;35.71
77893;BME280;67087;50.094;14.338;2023-09-12T07:13:21;97766.89;;;28.70;35.56
77893;BME280;67087;50.094;14.338;2023-09-12T07:15:47;97764.55;;;28.84;35.00
77893;BME280;67087;50.094;14.338;2023-09-12T07:18:12;97766.65;;;28.82;34.96
77893;BME280;67087;50.094;14.338;2023-09-12T07:20:37;97770.30;;;29.00;35.15
77893;BME280;67087;50.094;14.338;2023-09-12T07:23:03;97769.29;;;29.00;34.74
77893;BME280;67087;50.094;14.338;2023-09-12T07:25:28;97765.24;;;28.21;35.76
77893;BME280;67087;50.094;14.338;2023-09-12T07:27:54;97765.43;;;28.94;35.30
77893;BME280;67087;50.094;14.338;2023-09-12T07:30:19;97764.20;;;28.94;35.24
77893;BME280;67087;50.094;14.338;2023-09-12T07:32:44;97766.20;;;28.90;35.67
77893;BME280;67087;50.094;14.338;2023-09-12T07:35:10;97768.54;;;29.40;35.53
77893;BME280;67087;50.094;14.338;2023-09-12T07:37:35;97769.09;;;29.04;35.84
77893;BME280;67087;50.094;14.338;2023-09-12T07:40:01;97771.34;;;29.22;35.67
77893;BME280;67087;50.094;14.338;2023-09-12T07:42:26;97770.29;;;29.05;36.00
77893;BME280;67087;50.094;14.338;2023-09-12T07:44:51;97769.17;;;29.36;35.55
77893;BME280;67087;50.094;14.338;2023-09-12T07:47:17;97764.81;;;29.57;34.71
77893;BME280;67087;50.094;14.338;2023-09-12T07:49:42;97766.88;;;29.75;34.25
77893;BME280;67087;50.094;14.338;2023-09-12T07:52:08;97766.83;;;28.35;34.79
77893;BME280;67087;50.094;14.338;2023-09-12T07:54:34;97767.65;;;29.10;34.84
77893;BME280;67087;50.094;14.338;2023-09-12T07:56:58;97771.93;;;29.00;33.25
77893;BME280;67087;50.094;14.338;2023-09-12T07:59:24;97771.99;;;28.72;34.98
77893;BME280;67087;50.094;14.338;2023-09-12T08:01:49;97773.53;;;28.93;33.46
77893;BME280;67087;50.094;14.338;2023-09-12T08:04:14;97778.02;;;28.39;33.85
77893;BME280;67087;50.094;14.338;2023-09-12T08:06:39;97778.58;;;28.33;35.02
77893;BME280;67087;50.094;14.338;2023-09-12T08:09:04;97773.94;;;28.68;34.00
77893;BME280;67087;50.094;14.338;2023-09-12T08:11:30;97780.94;;;28.10;34.21
77893;BME280;67087;50.094;14.338;2023-09-12T08:13:56;97781.27;;;28.29;34.21
77893;BME280;67087;50.094;14.338;2023-09-12T08:16:21;97777.04;;;28.46;33.84
77893;BME280;67087;50.094;14.338;2023-09-12T08:18:47;97779.62;;;28.65;33.73
77893;BME280;67087;50.094;14.338;2023-09-12T08:21:12;97779.14;;;28.95;33.08
77893;BME280;67087;50.094;14.338;2023-09-12T08:23:38;97780.81;;;29.56;33.45
77893;BME280;67087;50.094;14.338;2023-09-12T08:26:03;97778.34;;;29.26;33.20
77893;BME280;67087;50.094;14.338;2023-09-12T08:28:29;97776.33;;;28.90;33.56
77893;BME280;67087;50.094;14.338;2023-09-12T08:30:55;97780.24;;;28.98;33.15
77893;BME280;67087;50.094;14.338;2023-09-12T08:33:20;97781.64;;;29.04;34.40
77893;BME280;67087;50.094;14.338;2023-09-12T08:35:46;97780.66;;;30.06;33.74
77893;BME280;67087;50.094;14.338;2023-09-12T08:38:12;97781.87;;;30.02;33.96
77893;BME280;67087;50.094;14.338;2023-09-12T08:40:37;97783.75;;;30.16;35.92
77893;BME280;67087;50.094;14.338;2023-09-12T08:43:03;97783.64;;;30.76;34.44
77893;BME280;67087;50.094;14.338;2023-09-12T08:45:27;97783.43;;;30.42;34.34
77893;BME280;67087;50.094;14.338;2023-09-12T08:47:54;97781.33;;;30.84;34.49
77893;BME280;67087;50.094;14.338;2023-09-12T08:50:18;97780.88;;;30.53;34.49
77893;BME280;67087;50.094;14.338;2023-09-12T08:52:45;97778.62;;;30.51;34.60
77893;BME280;67087;50.094;14.338;2023-09-12T08:55:10;97778.56;;;30.44;35.00
77893;BME280;67087;50.094;14.338;2023-09-12T08:57:38;97779.18;;;29.30;36.46
77893;BME280;67087;50.094;14.338;2023-09-12T09:00:01;97780.77;;;30.00;36.74
77893;BME280;67087;50.094;14.338;2023-09-12T09:02:26;97779.18;;;29.55;36.67
77893;BME280;67087;50.094;14.338;2023-09-12T09:04:51;97776.95;;;30.13;35.44
77893;BME280;67087;50.094;14.338;2023-09-12T09:07:18;97777.58;;;30.02;34.48
77893;BME280;67087;50.094;14.338;2023-09-12T09:09:42;97777.05;;;29.27;35.21
77893;BME280;67087;50.094;14.338;2023-09-12T09:12:08;97775.52;;;29.68;35.02
77893;BME280;67087;50.094;14.338;2023-09-12T09:14:33;97776.39;;;29.37;35.14
77893;BME280;67087;50.094;14.338;2023-09-12T09:16:58;97778.52;;;29.49;34.36
77893;BME280;67087;50.094;14.338;2023-09-12T09:21:49;97776.92;;;28.83;34.60
77893;BME280;67087;50.094;14.338;2023-09-12T09:24:17;97775.05;;;29.14;35.44
77893;BME280;67087;50.094;14.338;2023-09-12T09:26:42;97771.67;;;29.66;34.51
77893;BME280;67087;50.094;14.338;2023-09-12T09:29:08;97773.65;;;29.55;35.17
77893;BME280;67087;50.094;14.338;2023-09-12T09:31:32;97774.22;;;29.40;35.16
77893;BME280;67087;50.094;14.338;2023-09-12T09:33:58;97769.32;;;29.60;34.46
77893;BME280;67087;50.094;14.338;2023-09-12T09:36:22;97768.98;;;29.56;33.98
77893;BME280;67087;50.094;14.338;2023-09-12T09:38:47;97765.93;;;29.65;34.32
77893;BME280;67087;50.094;14.338;2023-09-12T09:41:12;97768.19;;;29.51;35.39
77893;BME280;67087;50.094;14.338;2023-09-12T09:43:38;97769.00;;;29.23;35.51
77893;BME280;67087;50.094;14.338;2023-09-12T09:46:03;97765.34;;;29.68;34.48
77893;BME280;67087;50.094;14.338;2023-09-12T09:48:29;97762.95;;;29.75;34.17
77893;BME280;67087;50.094;14.338;2023-09-12T09:51:00;97759.55;;;29.18;33.95
77893;BME280;67087;50.094;14.338;2023-09-12T09:53:23;97760.03;;;28.94;34.41
77893;BME280;67087;50.094;14.338;2023-09-12T09:55:44;97757.77;;;29.04;34.60
77893;BME280;67087;50.094;14.338;2023-09-12T09:58:14;97757.31;;;28.87;34.28
77893;BME280;67087;50.094;14.338;2023-09-12T10:00:37;97756.81;;;28.37;34.15
77893;BME280;67087;50.094;14.338;2023-09-12T10:03:04;97759.85;;;28.91;34.43
77893;BME280;67087;50.094;14.338;2023-09-12T10:05:27;97756.59;;;29.40;33.94
77893;BME280;67087;50.094;14.338;2023-09-12T10:07:51;97752.25;;;28.94;33.89
77893;BME280;67087;50.094;14.338;2023-09-12T10:10:17;97749.91;;;28.95;33.97
77893;BME280;67087;50.094;14.338;2023-09-12T10:12:45;97747.47;;;28.85;33.88
77893;BME280;67087;50.094;14.338;2023-09-12T10:15:08;97745.39;;;28.76;33.81
77893;BME280;67087;50.094;14.338;2023-09-12T10:17:36;97746.10;;;28.81;34.09
77893;BME280;67087;50.094;14.338;2023-09-12T10:20:02;97740.56;;;28.61;34.48
77893;BME280;67087;50.094;14.338;2023-09-12T10:22:28;97737.30;;;28.72;34.27
77893;BME280;67087;50.094;14.338;2023-09-12T10:24:49;97735.51;;;28.83;34.35
77893;BME280;67087;50.094;14.338;2023-09-12T10:27:14;97732.16;;;28.84;34.14
77893;BME280;67087;50.094;14.338;2023-09-12T10:29:38;97727.35;;;28.90;34.22
77893;BME280;67087;50.094;14.338;2023-09-12T10:32:05;97725.90;;;28.86;34.41
77893;BME280;67087;50.094;14.338;2023-09-12T10:34:31;97727.44;;;28.84;34.37
77893;BME280;67087;50.094;14.338;2023-09-12T10:36:58;97726.58;;;28.76;34.51
77893;BME280;67087;50.094;14.338;2023-09-12T10:39:20;97727.41;;;28.75;34.42
77893;BME280;67087;50.094;14.338;2023-09-12T10:41:46;97727.14;;;28.98;33.86
77893;BME280;67087;50.094;14.338;2023-09-12T10:44:15;97722.61;;;28.64;34.42
77893;BME280;67087;50.094;14.338;2023-09-12T10:46:38;97719.51;;;28.36;34.36
77893;BME280;67087;50.094;14.338;2023-09-12T10:49:05;97719.16;;;28.73;34.01
77893;BME280;67087;50.094;14.338;2023-09-12T10:51:28;97717.21;;;28.75;34.11
77893;BME280;67087;50.094;14.338;2023-09-12T10:53:54;97715.20;;;28.68;34.31
77893;BME280;67087;50.094;14.338;2023-09-12T10:56:20;97714.77;;;28.72;34.33
77893;BME280;67087;50.094;14.338;2023-09-12T11:01:21;97717.91;;;29.00;34.12
77893;BME280;67087;50.094;14.338;2023-09-12T11:03:36;97715.32;;;28.85;33.93
77893;BME280;67087;50.094;14.338;2023-09-12T11:06:01;97720.04;;;28.73;34.05
77893;BME280;67087;50.094;14.338;2023-09-12T11:08:26;97719.03;;;29.22;33.78
77893;BME280;67087;50.094;14.338;2023-09-12T11:13:17;97719.74;;;28.78;34.12
77893;BME280;67087;50.094;14.338;2023-09-12T11:18:07;97718.60;;;28.91;34.11
77893;BME280;67087;50.094;14.338;2023-09-12T11:20:48;97720.06;;;29.05;34.62
77893;BME280;67087;50.094;14.338;2023-09-12T11:25:25;97717.88;;;29.74;34.52
77893;BME280;67087;50.094;14.338;2023-09-12T11:28:02;97719.85;;;29.13;34.99
77893;BME280;67087;50.094;14.338;2023-09-12T11:30:14;97718.86;;;29.16;34.86
77893;BME280;67087;50.094;14.338;2023-09-12T11:32:39;97713.12;;;29.09;35.15
77893;BME280;67087;50.094;14.338;2023-09-12T11:35:06;97712.51;;;29.06;34.92
77893;BME280;67087;50.094;14.338;2023-09-12T11:37:30;97713.39;;;29.09;34.95
77893;BME280;67087;50.094;14.338;2023-09-12T11:39:56;97711.71;;;28.92;34.75
77893;BME280;67087;50.094;14.338;2023-09-12T11:42:22;97710.20;;;29.61;34.51
77893;BME280;67087;50.094;14.338;2023-09-12T11:44:48;97708.75;;;28.89;35.09
77893;BME280;67087;50.094;14.338;2023-09-12T11:47:12;97707.25;;;29.55;34.58
77893;BME280;67087;50.094;14.338;2023-09-12T11:49:39;97706.39;;;28.90;34.42
77893;BME280;67087;50.094;14.338;2023-09-12T11:52:08;97710.62;;;29.36;34.18
77893;BME280;67087;50.094;14.338;2023-09-12T11:54:29;97708.60;;;29.47;33.67
77893;BME280;67087;50.094;14.338;2023-09-12T11:56:54;97702.67;;;29.03;32.86
77893;BME280;67087;50.094;14.338;2023-09-12T11:59:20;97700.55;;;29.27;33.29
77893;BME280;67087;50.094;14.338;2023-09-12T12:01:45;97700.02;;;29.00;33.45
77893;BME280;67087;50.094;14.338;2023-09-12T12:04:10;97701.28;;;29.27;33.51
77893;BME280;67087;50.094;14.338;2023-09-12T12:06:36;97702.12;;;28.83;33.55
77893;BME280;67087;50.094;14.338;2023-09-12T12:09:02;97704.43;;;29.27;33.67
77893;BME280;67087;50.094;14.338;2023-09-12T12:11:28;97706.67;;;29.51;33.27
77893;BME280;67087;50.094;14.338;2023-09-12T12:13:52;97705.28;;;29.32;33.40
77893;BME280;67087;50.094;14.338;2023-09-12T12:16:18;97708.79;;;29.63;33.01
77893;BME280;67087;50.094;14.338;2023-09-12T12:18:43;97709.31;;;29.07;33.11
77893;BME280;67087;50.094;14.338;2023-09-12T12:21:09;97703.24;;;29.17;33.15
77893;BME280;67087;50.094;14.338;2023-09-12T12:23:34;97703.40;;;29.25;32.70
77893;BME280;67087;50.094;14.338;2023-09-12T12:26:03;97699.39;;;29.28;32.93
77893;BME280;67087;50.094;14.338;2023-09-12T12:28:24;97698.04;;;29.39;32.90
77893;BME280;67087;50.094;14.338;2023-09-12T12:30:52;97697.19;;;29.05;32.39
77893;BME280;67087;50.094;14.338;2023-09-12T12:33:15;97694.28;;;29.07;32.12
77893;BME280;67087;50.094;14.338;2023-09-12T12:35:41;97694.23;;;29.06;32.19
77893;BME280;67087;50.094;14.338;2023-09-12T12:38:06;97696.19;;;29.19;32.26
77893;BME280;67087;50.094;14.338;2023-09-12T12:40:36;97693.37;;;28.86;33.03
77893;BME280;67087;50.094;14.338;2023-09-12T12:42:56;97690.64;;;28.70;31.81
77893;BME280;67087;50.094;14.338;2023-09-12T12:45:23;97686.90;;;29.01;31.57
77893;BME280;67087;50.094;14.338;2023-09-12T12:47:51;97680.29;;;29.35;30.28
77893;BME280;67087;50.094;14.338;2023-09-12T12:50:13;97680.01;;;29.33;29.70
77893;BME280;67087;50.094;14.338;2023-09-12T12:52:38;97670.17;;;29.11;29.60
77893;BME280;67087;50.094;14.338;2023-09-12T12:55:04;97668.65;;;29.35;29.98